createdAt,value
2023-01-27T00:01:06.254Z,0.20
2023-01-27T00:03:34.643Z,0.20
2023-01-27T00:06:04.855Z,0.20
2023-01-27T00:08:33.235Z,0.20
2023-01-27T00:11:20.266Z,0.20
2023-01-27T00:13:48.664Z,0.20
2023-01-27T00:16:16.978Z,0.20
2023-01-27T00:18:45.318Z,0.20
2023-01-27T00:21:30.896Z,0.20
2023-01-27T00:24:16.594Z,0.20
2023-01-27T00:26:46.263Z,0.10
2023-01-27T00:29:14.538Z,0.10
2023-01-27T00:32:00.015Z,0.10
2023-01-27T00:34:28.583Z,0.10
2023-01-27T00:36:56.818Z,0.10
2023-01-27T00:39:25.084Z,0.10
2023-01-27T00:41:55.324Z,0.20
2023-01-27T00:44:24.040Z,0.20
2023-01-27T00:46:52.439Z,0.20
2023-01-27T00:49:20.793Z,0.10
2023-01-27T00:51:49.049Z,0.10
2023-01-27T00:54:17.379Z,0.10
2023-01-27T00:56:45.691Z,0.10
2023-01-27T00:59:15.331Z,0.10
2023-01-27T01:01:43.604Z,0.10
2023-01-27T01:04:11.997Z,0.10
2023-01-27T01:06:40.301Z,0.10
2023-01-27T01:09:08.529Z,0.10
2023-01-27T01:11:36.850Z,0.10
2023-01-27T01:14:05.104Z,0.00
2023-01-27T01:16:34.715Z,0.00
2023-01-27T01:19:02.978Z,0.00
2023-01-27T01:21:31.202Z,0.00
2023-01-27T01:23:59.527Z,0.00
2023-01-27T01:26:27.859Z,0.00
2023-01-27T01:28:56.160Z,0.00
2023-01-27T01:31:24.453Z,-0.10
2023-01-27T01:33:54.129Z,-0.10
2023-01-27T01:36:22.456Z,-0.10
2023-01-27T01:38:50.769Z,-0.10
2023-01-27T01:41:20.380Z,-0.10
2023-01-27T01:43:48.710Z,-0.10
2023-01-27T01:46:16.969Z,-0.20
2023-01-27T01:48:47.414Z,-0.20
2023-01-27T01:51:18.967Z,-0.10
2023-01-27T01:53:49.775Z,-0.10
2023-01-27T01:56:19.396Z,-0.10
2023-01-27T01:58:47.706Z,-0.10
2023-01-27T02:01:16.230Z,-0.10
2023-01-27T02:03:45.521Z,-0.10
2023-01-27T02:06:13.832Z,-0.10
2023-01-27T02:08:44.352Z,-0.20
2023-01-27T02:11:12.624Z,-0.10
2023-01-27T02:13:40.927Z,-0.10
2023-01-27T02:16:09.596Z,-0.10
2023-01-27T02:18:38.220Z,-0.10
2023-01-27T02:21:06.791Z,-0.10
2023-01-27T02:23:41.450Z,-0.10
2023-01-27T02:26:12.223Z,-0.10
2023-01-27T02:28:40.539Z,-0.10
2023-01-27T02:31:08.860Z,-0.10
2023-01-27T02:33:37.172Z,-0.10
2023-01-27T02:36:07.426Z,-0.10
2023-01-27T02:38:36.490Z,-0.10
2023-01-27T02:41:07.255Z,-0.10
2023-01-27T02:43:36.950Z,-0.10
2023-01-27T02:46:05.361Z,-0.10
2023-01-27T02:48:33.738Z,-0.10
2023-01-27T02:51:02.093Z,-0.10
2023-01-27T02:53:30.399Z,-0.10
2023-01-27T02:55:58.636Z,-0.10
2023-01-27T02:58:26.988Z,-0.10
2023-01-27T03:00:56.634Z,-0.10
2023-01-27T03:03:24.901Z,-0.10
2023-01-27T03:05:53.241Z,-0.10
2023-01-27T03:08:21.533Z,-0.10
2023-01-27T03:10:51.573Z,0.00
2023-01-27T03:13:23.012Z,-0.10
2023-01-27T03:16:08.340Z,-0.10
2023-01-27T03:18:38.042Z,-0.10
2023-01-27T03:21:07.830Z,-0.20
2023-01-27T03:23:36.167Z,-0.20
2023-01-27T03:26:06.941Z,-0.20
2023-01-27T03:28:35.194Z,-0.20
2023-01-27T03:31:03.561Z,-0.30
2023-01-27T03:33:32.005Z,-0.20
2023-01-27T03:36:19.588Z,-0.30
2023-01-27T03:39:05.327Z,-0.30
2023-01-27T03:41:50.721Z,-0.30
2023-01-27T03:44:36.515Z,-0.30
2023-01-27T03:47:04.830Z,-0.30
2023-01-27T03:49:33.045Z,-0.30
2023-01-27T03:52:02.819Z,-0.30
2023-01-27T03:54:31.126Z,-0.30
2023-01-27T03:57:06.377Z,-0.20
2023-01-27T03:59:35.241Z,-0.20
2023-01-27T04:02:20.640Z,-0.20
2023-01-27T04:05:06.330Z,-0.20
2023-01-27T04:07:37.532Z,-0.20
2023-01-27T04:10:06.207Z,-0.20
2023-01-27T04:12:33.539Z,-0.20
2023-01-27T04:15:01.855Z,-0.30
2023-01-27T04:17:30.788Z,-0.30
2023-01-27T04:19:59.044Z,-0.30
2023-01-27T04:22:27.318Z,-0.30
2023-01-27T04:24:56.954Z,-0.30
2023-01-27T04:27:25.176Z,-0.30
2023-01-27T04:29:53.566Z,-0.40
2023-01-27T04:32:21.843Z,-0.40
2023-01-27T04:34:50.080Z,-0.40
2023-01-27T04:37:18.297Z,-0.40
2023-01-27T04:39:47.430Z,-0.40
2023-01-27T04:42:17.183Z,-0.40
2023-01-27T04:44:45.484Z,-0.40
2023-01-27T04:47:13.694Z,-0.40
2023-01-27T04:49:42.396Z,-0.40
2023-01-27T04:52:10.655Z,-0.40
2023-01-27T04:54:39.040Z,-0.40
2023-01-27T04:57:07.453Z,-0.40
2023-01-27T04:59:37.141Z,-0.40
2023-01-27T05:02:05.673Z,-0.40
2023-01-27T05:04:33.934Z,-0.40
2023-01-27T05:07:02.508Z,-0.40
2023-01-27T05:09:30.783Z,-0.40
2023-01-27T05:11:59.099Z,-0.40
2023-01-27T05:14:27.534Z,-0.40
2023-01-27T05:16:57.248Z,-0.40
2023-01-27T05:19:25.573Z,-0.30
2023-01-27T05:21:53.817Z,-0.30
2023-01-27T05:24:22.143Z,-0.30
2023-01-27T05:26:50.481Z,-0.30
2023-01-27T05:29:18.725Z,-0.40
2023-01-27T05:31:47.067Z,-0.30
2023-01-27T05:34:16.948Z,-0.30
2023-01-27T05:36:45.248Z,-0.40
2023-01-27T05:39:13.687Z,-0.40
2023-01-27T05:41:41.966Z,-0.30
2023-01-27T05:44:11.449Z,-0.30
2023-01-27T05:46:40.308Z,-0.30
2023-01-27T05:49:09.498Z,-0.40
2023-01-27T05:51:40.775Z,-0.30
2023-01-27T05:54:09.242Z,-0.30
2023-01-27T05:56:37.486Z,-0.30
2023-01-27T05:59:05.760Z,-0.30
2023-01-27T06:01:34.737Z,-0.40
2023-01-27T06:04:03.056Z,-0.40
2023-01-27T06:06:32.038Z,-0.40
2023-01-27T06:09:01.748Z,-0.40
2023-01-27T06:11:30.119Z,-0.40
2023-01-27T06:13:58.395Z,-0.40
2023-01-27T06:16:26.643Z,-0.40
2023-01-27T06:18:54.982Z,-0.40
2023-01-27T06:21:23.406Z,-0.50
2023-01-27T06:23:53.500Z,-0.40
2023-01-27T06:26:23.273Z,-0.50
2023-01-27T06:28:51.566Z,-0.50
2023-01-27T06:31:21.657Z,-0.50
2023-01-27T06:33:50.201Z,-0.50
2023-01-27T06:36:20.394Z,-0.50
2023-01-27T06:38:49.311Z,-0.50
2023-01-27T06:41:17.547Z,-0.50
2023-01-27T06:43:47.255Z,-0.50
2023-01-27T06:46:15.948Z,-0.60
2023-01-27T06:48:44.287Z,-0.50
2023-01-27T06:51:13.275Z,-0.50
2023-01-27T06:53:41.562Z,-0.50
2023-01-27T06:56:10.083Z,-0.50
2023-01-27T06:58:38.410Z,-0.60
2023-01-27T07:01:08.277Z,-0.60
2023-01-27T07:03:36.569Z,-0.60
2023-01-27T07:06:05.054Z,-0.60
2023-01-27T07:08:33.434Z,-0.50
2023-01-27T07:11:04.665Z,-0.60
2023-01-27T07:13:33.035Z,-0.60
2023-01-27T07:16:01.612Z,-0.50
2023-01-27T07:18:31.487Z,-0.50
2023-01-27T07:20:59.811Z,-0.50
2023-01-27T07:23:28.119Z,-0.60
2023-01-27T07:25:56.422Z,-0.60
2023-01-27T07:28:24.692Z,-0.60
2023-01-27T07:30:52.966Z,-0.50
2023-01-27T07:33:21.292Z,-0.50
2023-01-27T07:35:51.294Z,-0.60
2023-01-27T07:38:19.691Z,-0.50
2023-01-27T07:40:47.960Z,-0.60
2023-01-27T07:43:16.281Z,-0.50
2023-01-27T07:45:44.714Z,-0.60
2023-01-27T07:48:13.686Z,-0.60
2023-01-27T07:50:42.208Z,-0.60
2023-01-27T07:53:12.954Z,-0.50
2023-01-27T07:55:41.236Z,-0.60
2023-01-27T07:58:09.601Z,-0.60
2023-01-27T08:00:38.006Z,-0.50
2023-01-27T08:03:06.926Z,-0.50
2023-01-27T08:05:35.460Z,-0.50
2023-01-27T08:08:04.822Z,-0.50
2023-01-27T08:10:34.486Z,-0.50
2023-01-27T08:13:02.770Z,-0.50
2023-01-27T08:15:31.063Z,-0.50
2023-01-27T08:17:59.731Z,-0.50
2023-01-27T08:20:28.487Z,-0.50
2023-01-27T08:22:56.841Z,-0.40
2023-01-27T08:25:25.478Z,-0.40
2023-01-27T08:27:55.637Z,-0.40
2023-01-27T08:30:25.102Z,-0.40
2023-01-27T08:32:53.821Z,-0.50
2023-01-27T08:35:22.225Z,-0.50
2023-01-27T08:37:51.601Z,-0.40
2023-01-27T08:40:20.014Z,-0.50
2023-01-27T08:42:48.241Z,-0.50
2023-01-27T08:45:18.057Z,-0.50
2023-01-27T08:47:46.340Z,-0.50
2023-01-27T08:50:14.912Z,-0.60
2023-01-27T08:52:43.388Z,-0.60
2023-01-27T08:55:11.655Z,-0.50
2023-01-27T08:57:39.924Z,-0.60
2023-01-27T09:00:09.614Z,-0.60
2023-01-27T09:02:39.266Z,-0.60
2023-01-27T09:05:08.143Z,-0.50
2023-01-27T09:07:36.406Z,-0.50
2023-01-27T09:10:14.275Z,-0.50
2023-01-27T09:12:43.849Z,-0.50
2023-01-27T09:15:13.380Z,-0.50
2023-01-27T09:17:43.199Z,-0.60
2023-01-27T09:20:12.952Z,-0.60
2023-01-27T09:22:41.651Z,-0.50
2023-01-27T09:25:11.415Z,-0.50
2023-01-27T09:27:40.363Z,-0.50
2023-01-27T09:30:09.913Z,-0.50
2023-01-27T09:32:38.348Z,-0.50
2023-01-27T09:35:08.738Z,-0.40
2023-01-27T09:37:39.868Z,-0.40
2023-01-27T09:40:13.621Z,-0.40
2023-01-27T09:42:59.734Z,-0.40
2023-01-27T09:45:39.541Z,-0.30
2023-01-27T09:48:17.934Z,-0.30
2023-01-27T09:50:48.520Z,-0.30
2023-01-27T09:53:55.853Z,-0.30
2023-01-27T09:56:29.392Z,-0.20
2023-01-27T09:59:14.995Z,-0.20
2023-01-27T10:01:48.783Z,-0.20
2023-01-27T10:04:34.904Z,-0.20
2023-01-27T10:07:14.641Z,-0.20
2023-01-27T10:09:52.171Z,-0.10
2023-01-27T10:12:30.912Z,-0.10
2023-01-27T10:15:04.324Z,-0.20
2023-01-27T10:17:37.052Z,-0.20
2023-01-27T10:20:15.895Z,-0.20
2023-01-27T10:22:48.529Z,-0.20
2023-01-27T10:25:24.131Z,-0.20
2023-01-27T10:27:56.165Z,-0.20
2023-01-27T10:30:29.034Z,-0.20
2023-01-27T10:32:59.440Z,-0.20
2023-01-27T10:35:30.141Z,-0.20
2023-01-27T10:38:05.599Z,-0.20
2023-01-27T10:40:37.417Z,-0.10
2023-01-27T10:43:07.632Z,-0.10
2023-01-27T10:45:39.893Z,-0.10
2023-01-27T10:48:19.856Z,-0.10
2023-01-27T10:50:49.043Z,-0.10
2023-01-27T10:53:20.615Z,-0.10
2023-01-27T10:55:54.395Z,-0.10
2023-01-27T10:58:28.020Z,-0.10
2023-01-27T11:03:46.422Z,-0.10
2023-01-27T11:06:16.755Z,-0.10
2023-01-27T11:08:47.120Z,-0.10
2023-01-27T11:11:32.754Z,-0.10
2023-01-27T11:14:04.721Z,-0.10
2023-01-27T11:16:35.769Z,-0.10
2023-01-27T11:19:11.589Z,0.00
2023-01-27T11:21:39.941Z,0.00
2023-01-27T11:24:22.551Z,0.00
2023-01-27T11:26:55.689Z,0.10
2023-01-27T11:29:28.528Z,0.10
2023-01-27T11:31:58.554Z,0.10
2023-01-27T11:34:29.252Z,0.20
2023-01-27T11:36:57.481Z,0.20
2023-01-27T11:39:34.108Z,0.20
2023-01-27T11:42:02.616Z,0.30
2023-01-27T11:44:33.569Z,0.30
2023-01-27T11:47:01.865Z,0.30
2023-01-27T11:49:31.729Z,0.40
2023-01-27T11:52:05.947Z,0.40
2023-01-27T11:54:38.760Z,0.40
2023-01-27T11:57:07.127Z,0.40
2023-01-27T11:59:39.058Z,0.50
2023-01-27T12:02:16.537Z,0.40
2023-01-27T12:04:51.804Z,0.40
2023-01-27T12:07:23.411Z,0.40
2023-01-27T12:09:53.151Z,0.40
2023-01-27T12:12:23.727Z,0.40
2023-01-27T12:14:54.131Z,0.40
2023-01-27T12:17:26.375Z,0.40
2023-01-27T12:19:55.333Z,0.40
2023-01-27T12:22:26.483Z,0.40
2023-01-27T12:24:57.154Z,0.40
2023-01-27T12:27:27.210Z,0.40
2023-01-27T12:29:56.494Z,0.40
2023-01-27T12:32:25.871Z,0.40
2023-01-27T12:34:56.488Z,0.40
2023-01-27T12:37:25.505Z,0.40
2023-01-27T12:39:57.413Z,0.40
2023-01-27T12:42:36.546Z,0.40
2023-01-27T12:45:23.212Z,0.40
2023-01-27T12:48:19.354Z,0.40
2023-01-27T12:50:58.385Z,0.40
2023-01-27T12:53:27.849Z,0.30
2023-01-27T12:56:00.157Z,0.30
2023-01-27T12:58:33.204Z,0.40
2023-01-27T13:01:02.230Z,0.40
2023-01-27T13:03:31.071Z,0.40
2023-01-27T13:06:00.418Z,0.40
2023-01-27T13:08:29.649Z,0.40
2023-01-27T13:11:00.452Z,0.40
2023-01-27T13:13:29.460Z,0.40
2023-01-27T13:15:59.436Z,0.40
2023-01-27T13:18:28.177Z,0.40
2023-01-27T13:20:58.203Z,0.40
2023-01-27T13:23:27.635Z,0.40
2023-01-27T13:25:59.248Z,0.40
2023-01-27T13:28:29.053Z,0.40
2023-01-27T13:31:00.205Z,0.40
2023-01-27T13:33:33.000Z,0.40
2023-01-27T13:36:02.871Z,0.40
2023-01-27T13:38:34.624Z,0.40
2023-01-27T13:41:05.307Z,0.40
2023-01-27T13:43:35.087Z,0.40
2023-01-27T13:46:06.323Z,0.40
2023-01-27T13:48:36.282Z,0.40
2023-01-27T13:51:06.708Z,0.40
2023-01-27T13:53:35.136Z,0.40
2023-01-27T13:56:09.307Z,0.40
2023-01-27T13:58:44.498Z,0.40
2023-01-27T14:01:19.005Z,0.40
2023-01-27T14:04:18.756Z,0.40
2023-01-27T14:06:53.972Z,0.40
2023-01-27T14:09:40.742Z,0.40
2023-01-27T14:12:15.375Z,0.40
2023-01-27T14:14:58.266Z,0.40
2023-01-27T14:17:34.366Z,0.40
2023-01-27T14:20:15.447Z,0.40
2023-01-27T14:22:47.251Z,0.30
2023-01-27T14:25:21.750Z,0.30
2023-01-27T14:27:53.566Z,0.40
2023-01-27T14:30:24.191Z,0.30
2023-01-27T14:32:54.188Z,0.40
2023-01-27T14:35:27.763Z,0.40
2023-01-27T14:38:00.249Z,0.40
2023-01-27T14:40:30.468Z,0.40
2023-01-27T14:43:09.578Z,0.40
2023-01-27T14:45:38.508Z,0.40
2023-01-27T14:48:12.548Z,0.40
2023-01-27T14:50:43.222Z,0.40
2023-01-27T14:53:21.430Z,0.40
2023-01-27T14:55:52.642Z,0.30
2023-01-27T14:58:39.634Z,0.40
2023-01-27T15:01:12.816Z,0.30
2023-01-27T15:04:21.423Z,0.30
2023-01-27T15:06:50.632Z,0.30
2023-01-27T15:09:28.518Z,0.30
2023-01-27T15:12:10.285Z,0.30
2023-01-27T15:15:11.582Z,0.30
2023-01-27T15:17:47.723Z,0.30
2023-01-27T15:20:31.709Z,0.30
2023-01-27T15:23:15.337Z,0.30
2023-01-27T15:25:44.616Z,0.30
2023-01-27T15:28:14.108Z,0.30
2023-01-27T15:30:58.658Z,0.20
2023-01-27T15:33:46.121Z,0.10
2023-01-27T15:36:18.675Z,0.10
2023-01-27T15:39:03.078Z,0.10
2023-01-27T15:41:31.367Z,0.10
2023-01-27T15:44:14.390Z,0.10
2023-01-27T15:46:45.544Z,0.10
2023-01-27T15:49:19.184Z,0.10
2023-01-27T15:51:47.476Z,0.10
2023-01-27T15:54:17.897Z,0.20
2023-01-27T15:56:48.191Z,0.20
2023-01-27T15:59:22.441Z,0.20
2023-01-27T16:02:01.039Z,0.20
2023-01-27T16:04:31.076Z,0.20
2023-01-27T16:07:03.093Z,0.20
2023-01-27T16:09:37.238Z,0.20
2023-01-27T16:12:08.405Z,0.20
2023-01-27T16:14:44.294Z,0.20
2023-01-27T16:17:25.026Z,0.20
2023-01-27T16:20:00.015Z,0.20
2023-01-27T16:22:28.825Z,0.20
2023-01-27T16:24:58.889Z,0.20
2023-01-27T16:27:35.596Z,0.20
2023-01-27T16:30:09.258Z,0.20
2023-01-27T16:32:39.498Z,0.20
2023-01-27T16:35:09.212Z,0.20
2023-01-27T16:37:38.856Z,0.20
2023-01-27T16:40:09.617Z,0.20
2023-01-27T16:42:39.169Z,0.20
2023-01-27T16:45:16.413Z,0.20
2023-01-27T16:47:48.099Z,0.20
2023-01-27T16:50:36.055Z,0.20
2023-01-27T16:53:04.416Z,0.20
2023-01-27T16:55:32.673Z,0.20
2023-01-27T16:58:00.970Z,0.20
2023-01-27T17:00:30.489Z,0.20
2023-01-27T17:03:00.977Z,0.20
2023-01-27T17:05:29.316Z,0.20
2023-01-27T17:08:16.088Z,0.20
2023-01-27T17:10:45.518Z,0.20
2023-01-27T17:13:27.755Z,0.10
2023-01-27T17:15:56.045Z,0.20
2023-01-27T17:18:25.939Z,0.20
2023-01-27T17:20:54.203Z,0.20
2023-01-27T17:23:23.671Z,0.20
2023-01-27T17:25:52.049Z,0.20
2023-01-27T17:28:22.345Z,0.20
2023-01-27T17:30:50.786Z,0.10
2023-01-27T17:33:20.259Z,0.10
2023-01-27T17:35:53.590Z,0.10
2023-01-27T17:38:24.242Z,0.10
2023-01-27T17:40:53.493Z,0.10
2023-01-27T17:43:27.654Z,0.10
2023-01-27T17:46:12.302Z,0.10
2023-01-27T17:48:41.766Z,0.10
2023-01-27T17:51:12.925Z,0.10
2023-01-27T17:53:42.257Z,0.10
2023-01-27T17:56:15.342Z,0.10
2023-01-27T17:58:44.824Z,0.10
2023-01-27T18:01:13.483Z,0.10
2023-01-27T18:03:41.821Z,0.10
2023-01-27T18:06:14.292Z,0.10
2023-01-27T18:08:48.929Z,0.10
2023-01-27T18:11:23.210Z,0.10
2023-01-27T18:13:53.227Z,0.10
2023-01-27T18:16:22.055Z,0.10
2023-01-27T18:18:50.477Z,0.10
2023-01-27T18:21:22.998Z,0.10
2023-01-27T18:23:52.766Z,0.10
2023-01-27T18:26:23.223Z,0.10
2023-01-27T18:28:53.220Z,0.10
2023-01-27T18:31:23.807Z,0.10
2023-01-27T18:33:59.328Z,0.10
2023-01-27T18:36:33.431Z,0.10
2023-01-27T18:39:01.872Z,0.10
2023-01-27T18:41:32.486Z,0.00
2023-01-27T18:44:01.424Z,0.00
2023-01-27T18:46:29.842Z,0.00
2023-01-27T18:48:59.743Z,0.10
2023-01-27T18:51:29.471Z,0.10
2023-01-27T18:53:57.851Z,0.00
2023-01-27T18:56:26.260Z,0.00
2023-01-27T18:58:55.323Z,0.00
2023-01-27T19:01:24.101Z,0.00
2023-01-27T19:03:53.866Z,-0.10
2023-01-27T19:06:22.268Z,-0.10
2023-01-27T19:08:52.193Z,-0.10
2023-01-27T19:11:20.527Z,-0.10
2023-01-27T19:13:49.393Z,-0.10
2023-01-27T19:16:18.320Z,-0.10
2023-01-27T19:18:46.707Z,-0.10
2023-01-27T19:21:15.796Z,-0.10
2023-01-27T19:23:44.883Z,-0.10
2023-01-27T19:26:18.593Z,-0.10
2023-01-27T19:28:47.232Z,-0.10
2023-01-27T19:31:15.657Z,-0.20
2023-01-27T19:33:45.183Z,-0.20
2023-01-27T19:36:22.525Z,-0.10
2023-01-27T19:38:50.943Z,-0.20
2023-01-27T19:41:20.699Z,-0.20
2023-01-27T19:43:50.160Z,-0.20
2023-01-27T19:46:21.542Z,-0.20
2023-01-27T19:48:50.426Z,-0.20
2023-01-27T19:51:18.949Z,-0.20
2023-01-27T19:53:47.344Z,-0.20
2023-01-27T19:56:17.299Z,-0.20
2023-01-27T19:58:50.044Z,-0.20
2023-01-27T20:01:18.624Z,-0.20
2023-01-27T20:03:47.136Z,-0.20
2023-01-27T20:06:17.650Z,-0.20
2023-01-27T20:08:46.104Z,-0.20
2023-01-27T20:11:34.114Z,-0.30
2023-01-27T20:14:04.296Z,-0.30
2023-01-27T20:16:32.735Z,-0.30
2023-01-27T20:19:01.298Z,-0.30
2023-01-27T20:21:31.451Z,-0.20
2023-01-27T20:23:59.824Z,-0.30
2023-01-27T20:26:29.731Z,-0.30
2023-01-27T20:28:58.053Z,-0.20
2023-01-27T20:31:27.886Z,-0.30
2023-01-27T20:33:56.202Z,-0.30
2023-01-27T20:36:24.921Z,-0.30
2023-01-27T20:38:53.517Z,-0.30
2023-01-27T20:41:24.001Z,-0.30
2023-01-27T20:43:55.935Z,-0.30
2023-01-27T20:46:25.025Z,-0.30
2023-01-27T20:48:54.704Z,-0.20
2023-01-27T20:51:22.952Z,-0.20
2023-01-27T20:53:51.248Z,-0.30
2023-01-27T20:56:20.194Z,-0.30
2023-01-27T20:58:48.569Z,-0.30
2023-01-27T21:01:17.778Z,-0.30
2023-01-27T21:03:46.115Z,-0.30
2023-01-27T21:06:16.139Z,-0.40
2023-01-27T21:08:44.798Z,-0.30
2023-01-27T21:11:15.993Z,-0.30
2023-01-27T21:13:44.498Z,-0.30
2023-01-27T21:16:13.032Z,-0.30
2023-01-27T21:18:41.579Z,-0.40
2023-01-27T21:21:16.821Z,-0.40
2023-01-27T21:23:45.213Z,-0.40
2023-01-27T21:26:14.459Z,-0.40
2023-01-27T21:28:42.690Z,-0.30
2023-01-27T21:31:11.930Z,-0.40
2023-01-27T21:33:40.642Z,-0.40
2023-01-27T21:36:10.858Z,-0.30
2023-01-27T21:38:40.859Z,-0.30
2023-01-27T21:41:10.786Z,-0.30
2023-01-27T21:44:01.894Z,-0.30
2023-01-27T21:46:30.295Z,-0.30
2023-01-27T21:48:58.707Z,-0.40
2023-01-27T21:51:27.060Z,-0.40
2023-01-27T21:53:56.705Z,-0.40
2023-01-27T21:56:25.040Z,-0.30
2023-01-27T21:58:53.346Z,-0.30
2023-01-27T22:01:21.709Z,-0.30
2023-01-27T22:03:49.967Z,-0.40
2023-01-27T22:06:18.280Z,-0.30
2023-01-27T22:08:46.587Z,-0.30
2023-01-27T22:11:16.379Z,-0.40
2023-01-27T22:13:44.632Z,-0.40
2023-01-27T22:16:14.204Z,-0.40
2023-01-27T22:18:42.630Z,-0.40
2023-01-27T22:21:11.104Z,-0.40
2023-01-27T22:23:39.392Z,-0.40
2023-01-27T22:26:08.126Z,-0.40
2023-01-27T22:28:37.784Z,-0.40
2023-01-27T22:31:06.218Z,-0.40
2023-01-27T22:33:34.545Z,-0.40
2023-01-27T22:36:02.994Z,-0.40
2023-01-27T22:38:31.291Z,-0.40
2023-01-27T22:40:59.686Z,-0.30
2023-01-27T22:43:27.981Z,-0.40
2023-01-27T22:46:01.557Z,-0.40
2023-01-27T22:48:29.870Z,-0.40
2023-01-27T22:50:58.104Z,-0.30
2023-01-27T22:53:26.365Z,-0.40
2023-01-27T22:56:00.780Z,-0.40
2023-01-27T22:58:29.136Z,-0.40
2023-01-27T23:00:58.845Z,-0.40
2023-01-27T23:03:27.177Z,-0.40
2023-01-27T23:05:55.398Z,-0.40
2023-01-27T23:08:23.695Z,-0.40
2023-01-27T23:10:52.011Z,-0.40
2023-01-27T23:13:20.558Z,-0.40
2023-01-27T23:15:48.790Z,-0.40
2023-01-27T23:18:18.428Z,-0.40
2023-01-27T23:20:46.645Z,-0.40
2023-01-27T23:23:15.036Z,-0.40
2023-01-27T23:25:44.569Z,-0.40
2023-01-27T23:28:13.135Z,-0.40
2023-01-27T23:30:44.049Z,-0.40
2023-01-27T23:33:12.824Z,-0.40
2023-01-27T23:35:42.473Z,-0.40
2023-01-27T23:38:26.355Z,-0.40
2023-01-27T23:41:02.101Z,-0.50
2023-01-27T23:43:31.187Z,-0.50
2023-01-27T23:45:59.697Z,-0.50
2023-01-27T23:48:27.987Z,-0.50
2023-01-27T23:50:57.728Z,-0.50
2023-01-27T23:53:26.064Z,-0.50
2023-01-27T23:55:57.791Z,-0.50
2023-01-27T23:58:26.124Z,-0.50
